Latest Weather Observations for Melbourne (Olympic Park)

IDV60901

Issued at 11:55 am EST Friday 19 September 2014 (issued every 10 minutes, with the page automatically refreshed every 10 minutes)

About weather observations | Map of Melbourne area stations | Latest observations for Melbourne area | Other Formats
Station Details ID: 086338 Name: MELBOURNE (OLYMPIC PARK) Lat: -37.83 Lon: 144.98 Height: 7.53 m
Data from the previous 72 hours. | See also: Recent months at Melbourne (Olympic Park)
Date/Time
EST
Tmp

°C
App
Tmp
°C
Dew
Point
°C
Rel
Hum
%
Delta-T

°C
Wind Press
QNH
hPa
Press
MSL
hPa
Rain
since
9 am
mm
Dir
 
Spd
km/h
Gust
km/h
Spd
kts
Gust
kts
19/11:30am 13.8 11.4 7.1 64 3.3 SSW 9 19 5 10 1024.9 1024.9 0.0
19/11:00am 13.7 10.9 7.0 64 3.2 SSW 11 20 6 11 1025.0 1025.0 0.0
19/10:30am 13.2 9.9 6.5 64 3.2 SW 13 24 7 13 1025.2 1025.2 0.0
19/10:00am 13.5 10.7 7.1 65 3.1 SSW 11 22 6 12 1025.2 1025.2 0.0
19/09:30am 12.8 9.5 6.4 65 3.0 SSW 13 20 7 11 1025.3 1025.3 0.0
19/09:00am 12.2 9.3 6.3 67 2.8 W 11 19 6 10 1025.3 1025.3 0.4
19/08:30am 11.2 9.2 6.3 72 2.3 W 6 11 3 6 1025.3 1025.3 0.4
19/08:00am 10.0 7.7 5.8 75 1.9 W 7 15 4 8 1025.3 1025.3 0.4
19/07:30am 9.2 6.8 5.4 77 1.7 NNW 7 13 4 7 1025.0 1025.0 0.4
19/07:00am 9.4 7.2 5.4 76 1.8 W 6 9 3 5 1024.9 1024.9 0.4
19/06:30am 9.1 7.3 5.5 78 1.6 W 4 9 2 5 1024.6 1024.6 0.4
19/06:00am 8.8 7.0 5.4 79 1.5 W 4 7 2 4 1024.4 1024.4 0.4
19/05:30am 8.9 7.8 5.1 77 1.7 CALM 0 7 0 4 1024.2 1024.2 0.4
19/05:00am 9.0 6.7 4.8 75 1.9 W 6 11 3 6 1024.1 1024.1 0.4
19/04:30am 9.2 7.2 4.4 72 2.1 SSW 4 9 2 5 1024.1 1024.1 0.4
19/04:00am 9.1 7.4 4.1 71 2.2 SSW 2 6 1 3 1023.9 1023.9 0.4
19/03:30am 9.0 7.6 3.8 70 2.3 CALM 0 0 0 0 1023.8 1023.8 0.4
19/03:00am 9.0 7.3 4.0 71 2.2 WSW 2 7 1 4 1023.9 1023.9 0.4
19/02:30am 8.9 7.6 3.9 71 2.2 CALM 0 0 0 0 1024.0 1024.0 0.4
19/02:00am 9.1 7.0 3.9 70 2.3 SW 4 7 2 4 1024.2 1024.2 0.4
19/01:30am 9.2 7.1 3.8 69 2.4 W 4 9 2 5 1024.5 1024.5 0.4
19/01:00am 9.2 6.7 3.8 69 2.3 WSW 6 15 3 8 1024.7 1024.7 0.4
19/12:30am 9.1 7.5 4.5 73 2.0 SW 2 7 1 4 1024.9 1024.9 0.4
19/12:00am 9.5 7.0 3.9 68 2.4 WSW 6 13 3 7 1024.9 1024.9 0.4
 
Date/Time
EST
Tmp

°C
App
Tmp
°C
Dew
Point
°C
Rel
Hum
%
Delta-T

°C
Wind Press
QNH
hPa
Press
MSL
hPa
Rain
since
9 am
mm
Dir
 
Spd
km/h
Gust
km/h
Spd
kts
Gust
kts
18/11:30pm 10.1 7.6 4.0 66 2.7 W 6 11 3 6 1025.1 1025.1 0.4
18/11:00pm 10.4 7.9 4.5 67 2.6 W 7 13 4 7 1025.2 1025.2 0.4
18/10:30pm 10.8 8.0 5.1 68 2.6 W 9 13 5 7 1025.1 1025.1 0.4
18/10:00pm 11.6 9.0 6.3 70 2.5 WSW 9 20 5 11 1025.0 1025.0 0.4
18/09:30pm 11.5 8.9 6.0 69 2.6 SW 9 15 5 8 1024.9 1024.9 0.4
18/09:00pm 11.5 8.5 6.2 70 2.5 SSW 11 20 6 11 1024.9 1024.9 0.4
18/08:30pm 11.9 8.3 4.9 62 3.2 S 13 20 7 11 1024.6 1024.6 0.4
18/08:00pm 12.0 8.6 4.2 59 3.5 S 11 20 6 11 1024.7 1024.7 0.4
18/07:30pm 12.0 8.3 4.5 60 3.4 S 13 26 7 14 1024.5 1024.5 0.4
18/07:00pm 11.9 7.7 3.7 57 3.6 S 15 26 8 14 1024.2 1024.2 0.4
18/06:30pm 11.9 8.2 4.2 59 3.5 SSW 13 22 7 12 1024.1 1024.1 0.4
18/06:00pm 12.0 7.9 4.2 59 3.5 S 15 24 8 13 1023.9 1023.9 0.4
18/05:30pm 12.2 8.4 3.9 57 3.7 S 13 20 7 11 1023.6 1023.6 0.4
18/05:00pm 12.6 8.9 6.2 65 3.0 S 15 28 8 15 1023.3 1023.3 0.4
18/04:30pm 12.2 9.1 7.1 71 2.5 S 13 22 7 12 1023.0 1023.0 0.4
18/04:00pm 12.7 9.6 7.4 70 2.6 S 13 24 7 13 1023.0 1023.0 0.4
18/03:30pm 12.4 8.0 6.7 68 2.7 S 19 32 10 17 1022.9 1022.9 0.4
18/03:00pm 11.5 7.1 6.4 71 2.4 S 19 32 10 17 1022.9 1022.9 0.4
18/02:30pm 13.0 9.4 6.6 65 3.1 SSW 15 28 8 15 1022.8 1022.8 0.4
18/02:00pm 12.6 8.7 7.1 69 2.6 S 17 26 9 14 1022.8 1022.8 0.4
18/01:30pm 11.9 9.5 7.0 72 2.3 SW 9 19 5 10 1022.8 1022.8 0.2
18/01:00pm 11.4 9.1 7.5 77 1.9 S 9 13 5 7 1022.9 1022.9 0.2
18/12:30pm 11.9 9.0 6.4 69 2.6 SSW 11 20 6 11 1023.1 1023.1 0.2
18/12:00pm 12.0 9.1 6.7 70 2.5 SW 11 17 6 9 1023.1 1023.1 0.2
18/11:30am 10.9 8.1 7.0 77 1.9 SSW 11 26 6 14 1023.3 1023.3 0.2
18/11:00am 11.9 8.9 6.2 68 2.7 SW 11 20 6 11 1023.2 1023.2 0.2
18/10:30am 11.2 8.8 7.1 76 2.0 SW 9 17 5 9 1023.3 1023.3 0.2
18/10:00am 9.8 7.9 7.4 85 1.1 SSW 7 17 4 9 1023.3 1023.3 0.2
18/09:30am 10.6 7.2 5.8 72 2.2 SW 13 20 7 11 1023.1 1023.1 0.0
18/09:00am 10.3 7.7 6.3 76 1.9 SW 9 20 5 11 1022.9 1022.9 0.6
18/08:30am 9.7 7.4 5.9 77 1.7 WSW 7 13 4 7 1022.8 1022.8 0.6
18/08:00am 8.7 6.4 5.6 81 1.4 W 7 15 4 8 1022.5 1022.5 0.6
18/07:30am 8.6 6.2 5.2 79 1.5 SW 7 15 4 8 1022.3 1022.3 0.4
18/07:00am 8.5 6.1 5.1 79 1.5 W 7 13 4 7 1021.7 1021.7 0.4
18/06:30am 8.3 5.9 5.1 80 1.4 WSW 7 15 4 8 1021.4 1021.4 0.4
18/06:00am 8.2 4.6 5.0 80 1.4 WNW 13 20 7 11 1021.1 1021.1 0.4
18/05:30am 8.0 5.1 4.9 81 1.4 W 9 15 5 8 1020.6 1020.6 0.4
18/05:00am 8.1 5.6 5.0 81 1.4 W 7 17 4 9 1020.3 1020.3 0.4
18/04:30am 8.4 5.2 5.0 79 1.5 W 11 20 6 11 1020.0 1020.0 0.4
18/04:00am 8.3 5.4 4.9 79 1.5 W 9 17 5 9 1019.9 1019.9 0.4
18/03:30am 8.1 5.2 4.9 80 1.4 W 9 19 5 10 1020.0 1020.0 0.4
18/03:00am 8.2 5.4 5.1 81 1.4 W 9 20 5 11 1019.8 1019.8 0.4
18/02:30am 8.4 4.8 4.8 78 1.6 W 13 24 7 13 1019.6 1019.6 0.4
18/02:00am 8.6 5.3 4.8 77 1.7 W 11 20 6 11 1019.9 1019.9 0.4
18/01:30am 8.5 5.3 4.9 78 1.6 W 11 22 6 12 1019.8 1019.8 0.4
18/01:00am 8.3 5.0 4.7 78 1.6 WNW 11 22 6 12 1019.8 1019.8 0.4
18/12:30am 8.3 5.0 4.5 77 1.7 W 11 17 6 9 1020.0 1020.0 0.4
18/12:00am 8.5 5.6 4.5 76 1.8 WNW 9 17 5 9 1020.0 1020.0 0.4
 
Date/Time
EST
Tmp

°C
App
Tmp
°C
Dew
Point
°C
Rel
Hum
%
Delta-T

°C
Wind Press
QNH
hPa
Press
MSL
hPa
Rain
since
9 am
mm
Dir
 
Spd
km/h
Gust
km/h
Spd
kts
Gust
kts
17/11:30pm 8.5 4.8 4.3 75 1.8 W 13 28 7 15 1019.8 1019.8 0.4
17/11:00pm 8.7 6.1 4.3 74 1.9 W 7 19 4 10 1019.7 1019.7 0.4
17/10:30pm 8.7 5.7 4.1 73 2.0 WNW 9 19 5 10 1019.6 1019.6 0.4
17/10:00pm 9.1 5.7 4.1 71 2.2 W 11 24 6 13 1019.7 1019.7 0.4
17/09:30pm 9.4 6.0 3.8 68 2.4 W 11 22 6 12 1019.5 1019.5 0.4
17/09:00pm 9.8 6.0 4.0 67 2.5 W 13 24 7 13 1019.1 1019.1 0.4
17/08:30pm 9.8 6.4 4.2 68 2.5 W 11 20 6 11 1018.9 1018.9 0.4
17/08:00pm 10.0 6.5 3.7 65 2.7 W 11 20 6 11 1018.8 1018.8 0.4
17/07:30pm 10.1 6.7 3.8 65 2.8 W 11 26 6 14 1018.5 1018.5 0.4
17/07:00pm 10.2 6.5 4.4 67 2.6 W 13 26 7 14 1018.2 1018.2 0.4
17/06:30pm 9.7 7.1 6.1 78 1.7 SSW 9 20 5 11 1017.8 1017.8 0.4
17/06:00pm 11.4 8.5 4.4 62 3.1 SW 9 20 5 11 1017.4 1017.4 0.4
17/05:30pm 11.2 7.7 5.5 68 2.6 SSW 13 26 7 14 1017.0 1017.0 0.4
17/05:00pm 11.6 8.2 5.7 67 2.7 SSW 13 32 7 17 1016.6 1016.6 0.2
17/04:30pm 13.1 9.4 4.3 55 4.0 W 13 26 7 14 1015.9 1015.9 0.2
17/04:00pm 11.5 8.1 7.6 77 1.9 SSW 15 24 8 13 1015.7 1015.7 0.2
17/03:30pm 12.6 9.6 6.0 64 3.1 SW 11 26 6 14 1015.4 1015.4 0.2
17/03:00pm 12.6 8.8 5.8 63 3.2 WSW 15 24 8 13 1015.2 1015.2 0.2
17/02:30pm 12.8 7.6 3.7 54 4.1 WSW 20 46 11 25 1015.0 1015.0 0.2
17/02:00pm 14.4 10.0 2.9 46 5.1 SW 15 20 8 11 1014.3 1014.3 0.2
17/01:30pm 15.4 10.1 -0.4 34 6.6 SW 17 22 9 12 1014.1 1014.1 0.2
17/01:00pm 14.9 9.8 4.3 49 4.9 SW 20 28 11 15 1013.9 1013.9 0.2
17/12:30pm 13.5 7.7 2.4 47 4.9 SW 22 41 12 22 1014.2 1014.2 0.2
17/12:00pm 13.9 9.9 5.0 55 4.1 WSW 15 26 8 14 1014.0 1014.0 0.2
17/11:30am 13.6 10.1 7.2 65 3.1 W 15 37 8 20 1013.9 1013.9 0.2
17/11:00am 13.7 8.8 4.3 53 4.3 W 19 32 10 17 1014.0 1014.0 0.0
17/10:30am 13.4 9.2 5.6 59 3.7 WSW 17 43 9 23 1014.1 1014.1 0.0
17/10:00am 13.9 9.9 6.7 62 3.5 W 17 32 9 17 1014.1 1014.1 0.0
17/09:30am 13.0 10.2 7.0 67 2.9 WNW 11 22 6 12 1013.9 1013.9 0.0
17/09:00am 13.1 10.1 7.8 70 2.6 W 13 24 7 13 1013.9 1013.9 3.4
17/08:30am 11.9 8.6 6.6 70 2.5 WNW 13 24 7 13 1013.9 1013.9 3.4
17/08:00am 11.8 9.0 6.9 72 2.3 W 11 17 6 9 1013.9 1013.9 3.4
17/07:30am 10.9 8.0 6.6 75 2.0 WNW 11 17 6 9 1013.6 1013.6 3.4
17/07:00am 10.8 8.4 6.9 77 1.8 NW 9 19 5 10 1013.4 1013.4 3.4
17/06:30am 10.8 8.1 7.3 79 1.7 WNW 11 22 6 12 1013.2 1013.2 3.4
17/06:00am 10.9 8.2 7.4 79 1.7 NW 11 20 6 11 1013.1 1013.1 3.2
17/05:30am 10.7 8.5 7.8 82 1.4 NW 9 15 5 8 1013.0 1013.0 3.2
17/05:00am 10.5 8.2 7.6 82 1.4 NW 9 19 5 10 1012.9 1012.9 3.2
17/04:30am 10.9 8.6 7.6 80 1.6 NW 9 15 5 8 1012.8 1012.8 3.2
17/04:00am 10.8 8.6 7.7 81 1.5 NW 9 19 5 10 1012.7 1012.7 3.2
17/03:30am 10.7 8.4 7.4 80 1.6 NW 9 15 5 8 1012.7 1012.7 3.2
17/03:00am 10.6 8.9 7.5 81 1.5 NW 6 9 3 5 1012.8 1012.8 3.2
17/02:30am 10.4 8.5 7.5 82 1.4 WNW 7 13 4 7 1012.8 1012.8 3.2
17/02:00am 10.2 7.5 7.3 82 1.4 NNW 11 17 6 9 1012.9 1012.9 3.2
17/01:30am 10.6 8.8 7.8 83 1.4 NW 7 13 4 7 1013.2 1013.2 3.2
17/01:00am 10.1 9.6 7.7 85 1.2 CALM 0 0 0 0 1013.3 1013.3 3.2
17/12:30am 10.2 9.3 7.6 84 1.2 WNW 2 9 1 5 1013.4 1013.4 3.2
17/12:00am 10.1 9.5 7.3 83 1.3 CALM 0 4 0 2 1013.4 1013.4 3.2
 
Date/Time
EST
Tmp

°C
App
Tmp
°C
Dew
Point
°C
Rel
Hum
%
Delta-T

°C
Wind Press
QNH
hPa
Press
MSL
hPa
Rain
since
9 am
mm
Dir
 
Spd
km/h
Gust
km/h
Spd
kts
Gust
kts
16/11:30pm 10.7 8.9 7.0 78 1.8 NNW 6 9 3 5 1013.5 1013.5 3.2
16/11:00pm 10.5 9.8 7.0 79 1.7 CALM 0 2 0 1 1013.8 1013.8 3.2
16/10:30pm 10.1 8.2 6.8 80 1.6 W 6 15 3 8 1013.9 1013.9 3.2
16/10:00pm 9.9 8.8 7.0 82 1.4 WNW 2 9 1 5 1013.9 1013.9 3.2
16/09:30pm 10.8 9.3 6.9 77 1.8 W 4 13 2 7 1013.8 1013.8 3.2
16/09:00pm 11.0 9.0 7.1 77 1.9 W 7 11 4 6 1013.7 1013.7 3.2
16/08:30pm 11.7 10.0 7.4 75 2.1 W 6 9 3 5 1013.7 1013.7 3.2
16/08:00pm 12.3 11.5 9.5 83 1.4 WSW 4 9 2 5 1013.3 1013.3 3.2
16/07:30pm 12.1 10.9 9.5 84 1.3 SSW 6 15 3 8 1013.1 1013.1 3.2
16/07:00pm 12.6 10.4 9.4 81 1.6 SSW 11 24 6 13 1012.8 1012.8 3.2
16/06:30pm 13.0 11.2 9.6 80 1.7 SSW 9 20 5 11 1012.5 1012.5 3.2
16/06:00pm 13.2 10.7 9.8 80 1.7 SSW 13 24 7 13 1012.1 1012.1 3.2
16/05:30pm 12.9 11.0 10.4 85 1.3 SSW 11 20 6 11 1011.8 1011.8 3.2
16/05:00pm 13.0 11.1 10.4 84 1.3 SSW 11 22 6 12 1011.6 1011.6 3.2
16/04:30pm 13.3 11.4 10.5 83 1.5 SSW 11 20 6 11 1011.3 1011.3 3.2
16/04:00pm 13.0 10.8 10.7 86 1.2 SW 13 20 7 11 1011.0 1011.0 3.2
16/03:30pm 13.5 11.7 10.9 84 1.4 SSW 11 19 6 10 1010.7 1010.7 3.2
16/03:00pm 13.0 12.0 10.9 87 1.1 SSW 7 15 4 8 1010.5 1010.5 3.2
16/02:30pm 13.2 11.6 11.4 89 1.0 SSW 11 20 6 11 1010.2 1010.2 2.8
16/02:00pm 13.0 10.7 11.9 93 0.6 SW 15 28 8 15 1010.0 1010.0 2.8
16/01:30pm 13.2 12.0 12.7 97 0.3 SSW 11 20 6 11 1009.7 1009.7 2.8
16/01:00pm 13.0 11.3 12.5 97 0.3 WSW 13 26 7 14 1009.7 1009.7 2.0
16/12:30pm 13.4 12.2 12.8 96 0.3 SW 11 17 6 9 1009.8 1009.8 0.8
16/12:00pm 13.8 13.3 12.5 92 0.7 SW 7 19 4 10 1009.9 1009.9 0.2

Latest Capital City Observations: Canberra | Sydney | Melbourne | Brisbane | Adelaide | Perth | Hobart | Darwin

Other Formats:

Comma delimited format used in spreadsheet applications
http://www.bom.gov.au/fwo/IDV60901/IDV60901.95936.axf

JavaScript Object Notation format (JSON) in row-major order
http://www.bom.gov.au/fwo/IDV60901/IDV60901.95936.json